Time;durP1;ratioP1;P1;durP2;ratioP2;P2;SDS_P1;SDS_P2;PMS_P1;PMS_P2;Temp;Humidity;BMP_temperature;BMP_pressure;BME280_temperature;BME280_humidity;BME280_pressure;Samples;Min_cycle;Max_cycle;Signal;HPM_P1;HPM_P2
2022/10/27 00:02:19;;;;;;;20.63;11.97;;;;;;;-141.97;59.53;47557.53;5054402;28;20204;-79
2022/10/27 00:04:44;;;;;;;21.80;11.80;;;;;;;-141.97;59.52;47546.00;5054176;28;20219;-80
2022/10/27 00:07:09;;;;;;;24.03;13.17;;;;;;;-141.97;59.32;47569.06;5054946;28;20176;-80
2022/10/27 00:09:35;;;;;;;23.17;12.40;;;;;;;-141.97;58.62;47567.13;5036380;28;20170;-80
2022/10/27 00:12:00;;;;;;;24.33;13.33;;;;;;;-141.97;58.70;47494.09;5053854;28;20188;-80
2022/10/27 00:14:26;;;;;;;25.60;13.60;;;;;;;-141.97;59.05;47494.09;5054013;28;20204;-81
2022/10/27 00:16:53;;;;;;;25.83;14.07;;;;;;;-141.97;59.27;47519.06;5036335;28;20630;-81
2022/10/27 00:19:20;;;;;;;22.67;12.83;;;;;;;-141.97;59.34;47532.53;5054212;28;20170;-80
2022/10/27 00:21:46;;;;;;;23.80;13.10;;;;;;;-141.97;59.59;47522.91;5036345;28;20185;-79
2022/10/27 00:24:11;;;;;;;24.93;13.73;;;;;;;-141.97;59.57;47540.22;5053926;28;20166;-80
2022/10/27 00:26:37;;;;;;;22.30;13.77;;;;;;;-141.97;59.38;47501.78;5054489;28;20264;-80
2022/10/27 00:29:02;;;;;;;25.47;14.27;;;;;;;-141.97;59.11;47490.25;5053847;28;20216;-79
2022/10/27 00:31:28;;;;;;;27.90;13.43;;;;;;;-141.97;59.46;47509.47;5054016;28;20205;-79
2022/10/27 00:33:53;;;;;;;30.97;14.60;;;;;;;-141.97;59.46;47553.69;5053484;28;20625;-79
2022/10/27 00:36:20;;;;;;;28.77;15.20;;;;;;;-141.97;59.31;47561.38;5053826;28;20267;-80
2022/10/27 00:38:46;;;;;;;29.13;15.50;;;;;;;-141.97;59.43;47538.28;5053913;28;20169;-79
2022/10/27 00:41:35;;;;;;;31.47;15.83;;;;;;;-141.97;59.58;47546.00;5053797;28;20165;-79
2022/10/27 00:44:39;;;;;;;32.53;16.40;;;;;;;-141.97;59.15;47511.38;5053496;28;20177;-79
2022/10/27 00:47:28;;;;;;;33.33;17.73;;;;;;;-141.97;59.17;47534.44;4972498;28;20676;-80
2022/10/27 00:50:14;;;;;;;38.67;17.47;;;;;;;-141.97;59.72;47532.53;4972601;28;20220;-79
2022/10/27 00:52:43;;;;;;;30.47;17.10;;;;;;;-141.97;59.25;47638.25;4973141;28;20187;-80
2022/10/27 00:55:17;;;;;;;33.07;17.63;;;;;;;-141.97;59.37;47534.44;4972982;28;20707;-79
2022/10/27 00:57:45;;;;;;;38.67;19.37;;;;;;;-141.97;59.64;47522.91;4973322;28;20188;-78
2022/10/27 01:00:11;;;;;;;34.53;18.80;;;;;;;-141.97;60.03;47542.16;4973554;28;20164;-81
2022/10/27 01:02:38;;;;;;;37.03;18.57;;;;;;;-141.97;60.01;47544.06;4972537;28;20172;-80
2022/10/27 01:05:12;;;;;;;35.33;18.73;;;;;;;-141.97;59.69;47519.06;4972355;28;20188;-80
2022/10/27 01:07:40;;;;;;;38.70;18.90;;;;;;;-141.97;59.63;47540.22;4972719;28;20179;-80
2022/10/27 01:10:06;;;;;;;36.27;19.00;;;;;;;-141.97;60.05;47542.16;4972557;28;20192;-79
2022/10/27 01:12:31;;;;;;;38.03;18.83;;;;;;;-141.97;60.60;47542.16;4972384;28;20176;-80
2022/10/27 01:14:57;;;;;;;36.67;18.87;;;;;;;-141.97;60.03;47561.38;4972597;28;20278;-80
2022/10/27 01:17:32;;;;;;;38.20;18.90;;;;;;;-141.97;59.66;47547.91;4972349;28;20191;-80
2022/10/27 01:20:03;;;;;;;33.40;18.07;;;;;;;-141.97;58.93;47549.84;4972300;28;20191;-80
2022/10/27 01:22:55;;;;;;;36.70;17.63;;;;;;;-141.97;58.73;47580.59;4972516;28;20328;-80
2022/10/27 01:25:57;;;;;;;31.73;17.90;;;;;;;-141.97;59.00;47557.53;5053377;28;20548;-80
2022/10/27 01:28:53;;;;;;;34.20;18.03;;;;;;;-141.97;58.86;47559.44;5053240;28;20177;-80
2022/10/27 01:31:47;;;;;;;33.33;18.07;;;;;;;-141.97;59.17;47580.59;5052941;28;20174;-80
2022/10/27 01:34:26;;;;;;;35.03;17.60;;;;;;;-141.97;58.13;47538.28;5024093;28;20238;-80
2022/10/27 01:36:59;;;;;;;37.03;18.97;;;;;;;-141.97;58.81;47524.84;5013310;28;20185;-80
2022/10/27 01:39:32;;;;;;;30.07;16.77;;;;;;;-141.97;59.23;47557.53;5013642;28;20193;-80
2022/10/27 01:42:11;;;;;;;32.70;17.50;;;;;;;-141.97;59.09;47522.91;5013216;28;20175;-80
2022/10/27 01:44:42;;;;;;;33.63;18.00;;;;;;;-141.97;59.20;47547.91;5013061;28;20201;-80
2022/10/27 01:47:10;;;;;;;30.67;18.07;;;;;;;-141.97;59.24;47499.84;5013209;28;20245;-80
2022/10/27 01:49:37;;;;;;;34.37;18.27;;;;;;;-141.97;59.06;47561.38;5013087;28;20175;-80
2022/10/27 01:52:26;;;;;;;31.83;16.07;;;;;;;-141.97;58.69;47549.84;5013079;28;20170;-81
2022/10/27 01:54:54;;;;;;;25.83;14.40;;;;;;;-141.97;59.85;47496.00;5012775;28;20246;-80
2022/10/27 01:57:44;;;;;;;24.27;14.53;;;;;;;-141.97;59.60;47557.53;5013307;28;20626;-80
2022/10/27 02:00:10;;;;;;;25.33;14.23;;;;;;;-141.97;58.93;47542.16;5013262;28;20177;-80
2022/10/27 02:02:51;;;;;;;23.03;13.37;;;;;;;-141.97;58.89;47569.06;5013349;28;20226;-80
2022/10/27 02:05:53;;;;;;;20.87;12.03;;;;;;;-141.97;58.46;47563.28;5013469;28;20167;-80
2022/10/27 02:08:30;;;;;;;20.20;10.20;;;;;;;-141.97;57.89;47553.69;5013545;28;20630;-80
2022/10/27 02:11:07;;;;;;;22.33;9.80;;;;;;;-141.97;58.52;47542.16;5013122;28;20178;-80
2022/10/27 02:13:39;;;;;;;22.83;10.70;;;;;;;-141.97;59.34;47499.84;5013247;28;20162;-80
2022/10/27 02:16:09;;;;;;;18.57;10.63;;;;;;;-141.97;58.89;47534.44;5013065;28;20230;-80
2022/10/27 02:18:39;;;;;;;19.10;9.80;;;;;;;-141.97;58.59;47542.16;5017092;28;20181;-80
2022/10/27 02:21:09;;;;;;;17.23;10.30;;;;;;;-141.97;58.44;47515.22;5016685;28;20175;-80
2022/10/27 02:23:35;;;;;;;18.97;10.60;;;;;;;-141.97;57.94;47565.22;5016655;28;20650;-80
2022/10/27 02:26:09;;;;;;;19.70;9.80;;;;;;;-141.97;58.15;47536.38;5016594;28;20526;-80
2022/10/27 02:28:39;;;;;;;20.90;10.37;;;;;;;-141.97;58.49;47538.28;5016409;28;20175;-80
2022/10/27 02:31:07;;;;;;;19.80;10.40;;;;;;;-141.97;58.56;47522.91;5016606;28;20718;-80
2022/10/27 02:33:32;;;;;;;16.33;9.10;;;;;;;-141.97;58.67;47565.22;5020629;28;20167;-80
2022/10/27 02:35:58;;;;;;;19.70;10.00;;;;;;;-141.97;58.59;47547.91;5053620;28;20582;-80
2022/10/27 02:38:23;;;;;;;17.87;9.37;;;;;;;-141.97;58.23;47542.16;5056021;28;20214;-80
2022/10/27 02:40:49;;;;;;;16.03;8.90;;;;;;;-141.97;58.59;47549.84;5056095;28;20607;-80
2022/10/27 02:43:15;;;;;;;20.33;9.70;;;;;;;-141.97;58.50;47611.34;5055971;28;20253;-79
2022/10/27 02:45:40;;;;;;;15.70;9.00;;;;;;;-141.97;58.24;47553.69;5056000;28;20256;-79
2022/10/27 02:48:06;;;;;;;15.40;9.00;;;;;;;-141.97;58.18;47538.28;5056005;28;20191;-79
2022/10/27 02:50:31;;;;;;;15.10;8.30;;;;;;;-141.97;58.27;47561.38;5056143;28;20193;-79
2022/10/27 02:52:56;;;;;;;14.23;7.77;;;;;;;-141.97;59.00;47519.06;5056096;28;20162;-81
2022/10/27 02:55:22;;;;;;;13.73;7.47;;;;;;;-141.97;59.81;47590.19;5056015;28;20228;-80
2022/10/27 02:57:47;;;;;;;16.37;7.70;;;;;;;-141.97;59.84;47553.69;5055620;28;20226;-81
2022/10/27 03:00:13;;;;;;;12.57;7.23;;;;;;;-141.97;59.77;47551.75;5055857;28;20176;-81
2022/10/27 03:02:39;;;;;;;12.47;7.33;;;;;;;-141.97;59.79;47517.16;5055691;28;20222;-81
2022/10/27 03:05:04;;;;;;;15.03;7.73;;;;;;;-141.97;60.09;47563.28;5055567;28;20169;-81
2022/10/27 03:07:30;;;;;;;13.00;7.73;;;;;;;-141.97;60.38;47553.69;5055741;28;20675;-80
2022/10/27 03:09:55;;;;;;;13.90;8.00;;;;;;;-141.97;60.49;47534.44;5055887;28;20173;-82
2022/10/27 03:12:20;;;;;;;13.33;8.13;;;;;;;-141.97;60.29;47563.28;5055991;28;20248;-79
2022/10/27 03:14:46;;;;;;;15.87;7.80;;;;;;;-141.97;59.99;47534.44;5055345;28;20201;-81
2022/10/27 03:17:11;;;;;;;17.47;8.13;;;;;;;-141.97;60.13;47576.75;5055562;28;20273;-81
2022/10/27 03:19:37;;;;;;;14.13;7.83;;;;;;;-141.97;61.13;47580.59;5055553;28;20633;-80
2022/10/27 03:22:02;;;;;;;16.30;8.10;;;;;;;-141.97;60.91;47690.16;5055625;28;20178;-81
2022/10/27 03:24:27;;;;;;;15.33;8.60;;;;;;;-141.97;60.85;47563.28;5055775;28;20304;-80
2022/10/27 03:26:53;;;;;;;14.87;7.97;;;;;;;-141.97;61.24;47569.06;5055398;28;20172;-80
2022/10/27 03:29:18;;;;;;;22.90;12.50;;;;;;;-141.97;60.93;47530.59;5054531;28;20229;-82
2022/10/27 03:31:44;;;;;;;36.77;15.87;;;;;;;-141.97;60.47;47569.06;5055274;28;20644;-80
2022/10/27 03:34:09;;;;;;;35.07;15.30;;;;;;;-141.97;60.21;47511.38;5054731;28;20231;-80
2022/10/27 03:36:35;;;;;;;15.23;8.40;;;;;;;-141.97;60.16;47576.75;5055292;28;20562;-80
2022/10/27 03:39:00;;;;;;;26.97;7.50;;;;;;;-141.97;60.35;47576.75;5053892;28;20601;-79
2022/10/27 03:41:25;;;;;;;13.53;7.80;;;;;;;-141.97;61.51;47522.91;5055414;28;20600;-81
2022/10/27 03:43:51;;;;;;;11.53;7.27;;;;;;;-141.97;61.71;47521.00;5055236;28;20244;-81
2022/10/27 03:46:16;;;;;;;13.60;7.90;;;;;;;-141.97;61.52;47553.69;5054981;28;20204;-80
2022/10/27 03:48:42;;;;;;;13.97;7.80;;;;;;;-141.97;61.04;47546.00;5054617;28;20200;-81
2022/10/27 03:51:07;;;;;;;14.93;7.47;;;;;;;-141.97;60.82;47501.78;5055147;28;20201;-81
2022/10/27 03:53:32;;;;;;;16.50;8.10;;;;;;;-141.97;60.90;47542.16;5055007;28;20611;-81
2022/10/27 03:55:58;;;;;;;12.83;7.67;;;;;;;-141.97;61.54;47536.38;5054951;28;20200;-81
2022/10/27 03:58:23;;;;;;;13.80;8.13;;;;;;;-141.97;61.59;47595.97;5054644;28;20176;-80
2022/10/27 04:00:48;;;;;;;13.30;7.60;;;;;;;-141.97;61.23;47584.44;5054725;28;20177;-80
2022/10/27 04:03:14;;;;;;;18.43;9.50;;;;;;;-141.97;60.90;47538.28;5054387;28;20302;-80
2022/10/27 04:05:39;;;;;;;57.10;30.60;;;;;;;-141.97;60.21;47574.81;5055298;28;20161;-79
2022/10/27 04:08:05;;;;;;;50.40;29.30;;;;;;;-141.97;59.92;47534.44;5057103;28;20258;-78
2022/10/27 04:10:30;;;;;;;27.43;14.40;;;;;;;-141.97;60.03;47546.00;5055429;28;20249;-79
2022/10/27 04:12:57;;;;;;;15.67;8.93;;;;;;;-141.97;60.31;47540.22;5056291;28;20170;-80
2022/10/27 04:15:24;;;;;;;14.67;7.60;;;;;;;-141.97;60.62;47565.22;5036896;28;20197;-83
2022/10/27 04:17:54;;;;;;;12.30;7.00;;;;;;;-141.97;60.29;47551.75;5057640;28;20177;-80
2022/10/27 04:20:20;;;;;;;11.53;6.50;;;;;;;-141.97;60.14;47644.00;5058363;28;20178;-80
2022/10/27 04:22:45;;;;;;;10.13;6.23;;;;;;;-141.97;60.13;47511.38;5057578;28;20195;-80
2022/10/27 04:25:10;;;;;;;13.27;6.57;;;;;;;-141.97;60.29;47530.59;5056822;28;20165;-80
2022/10/27 04:27:36;;;;;;;12.87;6.43;;;;;;;-141.97;60.14;47565.22;5057105;28;20212;-80
2022/10/27 04:30:01;;;;;;;13.57;7.50;;;;;;;-141.97;60.73;47549.84;5058880;28;20169;-81
2022/10/27 04:32:27;;;;;;;18.40;9.47;;;;;;;-141.97;60.85;47532.53;5059770;28;20169;-83
2022/10/27 04:34:52;;;;;;;13.90;8.50;;;;;;;-141.97;61.05;47561.38;5056601;28;20244;-81
2022/10/27 04:37:17;;;;;;;13.47;7.03;;;;;;;-141.97;61.42;47553.69;5057598;28;20193;-78
2022/10/27 04:39:43;;;;;;;11.37;7.40;;;;;;;-141.97;61.44;47565.22;5055748;28;20558;-80
2022/10/27 04:42:10;;;;;;;14.13;8.10;;;;;;;-141.97;61.39;47534.44;5053605;28;20181;-81
2022/10/27 04:44:35;;;;;;;14.33;8.07;;;;;;;-141.97;61.45;47574.81;5053723;28;20172;-83
2022/10/27 04:47:01;;;;;;;13.83;7.20;;;;;;;-141.97;62.10;47538.28;5054047;28;20169;-81
2022/10/27 04:49:26;;;;;;;16.40;7.90;;;;;;;-141.97;62.42;47532.53;5053678;28;20223;-79
2022/10/27 04:51:52;;;;;;;21.33;11.17;;;;;;;-141.97;62.26;47567.13;5053796;28;20172;-80
2022/10/27 04:54:17;;;;;;;17.50;9.30;;;;;;;-141.97;61.57;47526.75;5053366;28;20197;-79
2022/10/27 04:56:42;;;;;;;18.47;9.70;;;;;;;-141.97;61.23;47507.53;5053664;28;20161;-80
2022/10/27 04:59:08;;;;;;;16.00;8.50;;;;;;;-141.97;60.83;47530.59;5053615;28;20161;-80
2022/10/27 05:01:33;;;;;;;12.23;7.20;;;;;;;-141.97;60.71;47572.91;5055540;28;20165;-79
2022/10/27 05:03:59;;;;;;;11.07;6.33;;;;;;;-141.97;60.77;47565.22;5053616;28;20192;-80
2022/10/27 05:06:24;;;;;;;16.07;6.40;;;;;;;-141.97;60.36;47572.91;5053539;28;20549;-80
2022/10/27 05:08:49;;;;;;;10.77;6.00;;;;;;;-141.97;59.97;47582.50;5052968;28;20164;-81
2022/10/27 05:11:15;;;;;;;12.40;6.50;;;;;;;-141.97;60.18;47565.22;5053147;28;20180;-79
2022/10/27 05:13:40;;;;;;;12.80;6.87;;;;;;;-141.97;59.45;47549.84;5053343;28;20216;-80
2022/10/27 05:16:06;;;;;;;19.10;7.83;;;;;;;-141.97;58.93;47517.16;5053441;28;20228;-78
2022/10/27 05:18:31;;;;;;;14.30;7.47;;;;;;;-141.97;58.75;47578.66;5053243;28;20162;-79
2022/10/27 05:20:57;;;;;;;15.97;8.67;;;;;;;-141.97;58.56;47522.91;5053219;28;20176;-79
2022/10/27 05:23:22;;;;;;;14.57;8.60;;;;;;;-141.97;58.30;47561.38;5053224;28;20184;-79
2022/10/27 05:25:55;;;;;;;14.67;8.27;;;;;;;-141.97;58.66;47526.75;5036291;28;20192;-80
2022/10/27 05:28:21;;;;;;;14.73;7.50;;;;;;;-141.97;58.38;47567.13;5053415;28;20196;-79
2022/10/27 05:30:47;;;;;;;16.90;8.50;;;;;;;-141.97;58.67;47561.38;5018355;28;21902;-79
2022/10/27 05:33:13;;;;;;;15.30;7.97;;;;;;;-141.97;59.04;47546.00;5060252;28;20191;-79
2022/10/27 05:35:38;;;;;;;17.23;7.97;;;;;;;-141.97;59.09;47553.69;5070281;28;20246;-79
2022/10/27 05:38:04;;;;;;;23.53;11.63;;;;;;;-141.97;58.82;47570.97;5058007;28;20523;-80
2022/10/27 05:40:35;;;;;;;15.50;8.13;;;;;;;-141.97;58.70;47515.22;5050056;28;20193;-79
2022/10/27 05:43:02;;;;;;;22.73;12.07;;;;;;;-141.97;58.46;47569.06;5049136;28;20185;-79
2022/10/27 05:45:28;;;;;;;24.33;11.27;;;;;;;-141.97;59.22;47501.78;5049543;28;20292;-78
2022/10/27 05:47:58;;;;;;;15.80;7.23;;;;;;;-141.97;59.53;47559.44;5050360;28;20188;-79
2022/10/27 05:50:24;;;;;;;14.73;7.73;;;;;;;-141.97;59.65;47532.53;5051285;28;20181;-79
2022/10/27 05:52:50;;;;;;;15.80;7.47;;;;;;;-141.97;59.85;47544.06;5038770;28;20276;-78
2022/10/27 05:55:15;;;;;;;15.23;6.80;;;;;;;-141.97;59.69;47559.44;5054982;28;20284;-79
2022/10/27 05:57:40;;;;;;;13.23;7.27;;;;;;;-141.97;59.83;47542.16;5054887;28;20276;-79
2022/10/27 06:00:06;;;;;;;11.97;6.30;;;;;;;-141.97;59.88;47576.75;5054229;28;20195;-78
2022/10/27 06:02:32;;;;;;;16.70;7.10;;;;;;;-141.97;60.26;47580.59;5053714;28;20189;-79
2022/10/27 06:04:57;;;;;;;18.80;7.97;;;;;;;-141.97;59.57;47544.06;5053513;28;20184;-78
2022/10/27 06:07:23;;;;;;;28.70;11.50;;;;;;;-141.97;58.94;47586.34;5053354;28;20276;-79
2022/10/27 06:09:48;;;;;;;13.00;6.33;;;;;;;-141.97;59.05;47572.91;5053573;28;20698;-79
2022/10/27 06:12:13;;;;;;;12.90;6.43;;;;;;;-141.97;59.66;47553.69;5051240;28;20267;-79
2022/10/27 06:14:39;;;;;;;14.03;6.47;;;;;;;-141.97;59.65;47546.00;5049804;28;20234;-79
2022/10/27 06:17:04;;;;;;;15.33;6.20;;;;;;;-141.97;58.64;47519.06;5051474;28;20224;-79
2022/10/27 06:19:29;;;;;;;13.93;6.50;;;;;;;-141.97;57.89;47499.84;5052109;28;20201;-77
2022/10/27 06:21:55;;;;;;;12.17;6.43;;;;;;;-141.97;56.93;47542.16;5051489;28;20552;-79
2022/10/27 06:24:20;;;;;;;18.60;7.23;;;;;;;-141.97;57.10;47572.91;5049472;28;20242;-80
2022/10/27 06:26:45;;;;;;;14.37;8.03;;;;;;;-141.97;57.36;47505.63;5051174;28;20185;-79
2022/10/27 06:29:11;;;;;;;14.23;7.80;;;;;;;-141.97;57.16;47530.59;5051148;28;20188;-79
2022/10/27 06:31:38;;;;;;;19.10;7.80;;;;;;;-141.97;57.54;47538.28;5051242;28;20235;-78
2022/10/27 06:34:03;;;;;;;19.33;7.40;;;;;;;-141.97;56.77;47557.53;5061990;28;20252;-79
2022/10/27 06:36:29;;;;;;;19.27;7.67;;;;;;;-141.97;55.55;47534.44;5050316;28;20661;-79
2022/10/27 06:38:54;;;;;;;23.60;8.60;;;;;;;-141.97;55.70;47574.81;5051068;28;20251;-79
2022/10/27 06:41:20;;;;;;;20.77;9.60;;;;;;;-141.97;55.26;47559.44;5050876;28;20583;-79
2022/10/27 06:43:45;;;;;;;21.83;9.47;;;;;;;-141.97;55.06;47530.59;5050509;28;20708;-79
2022/10/27 06:46:10;;;;;;;23.33;11.10;;;;;;;-141.97;54.34;47711.28;5068901;28;20192;-79
2022/10/27 06:48:36;;;;;;;26.47;11.50;;;;;;;-141.97;54.05;47536.38;5072995;28;20181;-78
2022/10/27 06:51:01;;;;;;;22.27;9.53;;;;;;;-141.97;54.60;47557.53;5072010;28;20192;-80
2022/10/27 06:53:26;;;;;;;18.07;9.93;;;;;;;-141.97;53.79;47553.69;5071475;28;20236;-79
2022/10/27 06:55:54;;;;;;;20.47;10.50;;;;;;;-141.97;53.62;47574.81;5073034;28;20244;-79
2022/10/27 06:58:19;;;;;;;20.73;10.27;;;;;;;-141.97;52.72;47534.44;5076145;28;20205;-79
2022/10/27 07:00:45;;;;;;;27.00;12.03;;;;;;;-141.97;51.82;47530.59;5070687;28;20272;-79
2022/10/27 07:03:11;;;;;;;23.67;11.80;;;;;;;-141.97;51.27;47567.13;5070019;28;20546;-80
2022/10/27 07:05:37;;;;;;;37.90;18.53;;;;;;;-141.97;51.05;47547.91;5070436;28;20249;-78
2022/10/27 07:08:02;;;;;;;27.67;12.83;;;;;;;-141.97;50.35;47544.06;5070675;28;20839;-79
2022/10/27 07:10:28;;;;;;;18.93;10.83;;;;;;;-141.97;50.34;47522.91;5070764;28;20176;-79
2022/10/27 07:12:59;;;;;;;21.77;9.83;;;;;;;-141.97;49.96;47561.38;5071336;28;20189;-79
2022/10/27 07:15:31;;;;;;;17.17;9.33;;;;;;;-141.97;49.84;47569.06;5069399;28;20205;-77
2022/10/27 07:17:59;;;;;;;14.93;7.60;;;;;;;-141.97;49.89;47578.66;5070753;28;20185;-78
2022/10/27 07:20:25;;;;;;;12.27;7.47;;;;;;;-141.97;49.94;47546.00;5070433;28;20183;-80
2022/10/27 07:22:50;;;;;;;15.07;7.67;;;;;;;-141.97;50.03;47492.16;5070794;28;20189;-79
2022/10/27 07:25:15;;;;;;;15.57;7.03;;;;;;;-141.97;49.71;47559.44;5069907;28;20184;-79
2022/10/27 07:27:41;;;;;;;14.40;8.13;;;;;;;-141.97;49.48;47490.25;5050641;28;20178;-79
2022/10/27 07:30:06;;;;;;;14.37;8.30;;;;;;;-141.97;49.59;47515.22;5050547;28;20608;-79
2022/10/27 07:32:32;;;;;;;17.57;8.77;;;;;;;-141.97;49.47;47515.22;5040253;28;20312;-78
2022/10/27 07:34:57;;;;;;;22.13;10.37;;;;;;;-141.97;49.47;47522.91;5049019;28;20282;-79
2022/10/27 07:37:23;;;;;;;21.63;9.43;;;;;;;-141.97;50.04;47628.63;5049983;28;20209;-79
2022/10/27 07:39:49;;;;;;;18.63;8.30;;;;;;;-141.97;49.97;47532.53;5049891;28;20200;-78
2022/10/27 07:42:16;;;;;;;16.17;8.47;;;;;;;-141.97;49.74;47542.16;5049729;28;20258;-78
2022/10/27 07:44:42;;;;;;;26.80;10.20;;;;;;;-141.97;49.97;47519.06;5049392;28;20188;-79
2022/10/27 07:47:07;;;;;;;17.97;8.87;;;;;;;-141.97;49.69;47546.00;5049655;28;20182;-79
2022/10/27 07:49:32;;;;;;;22.30;9.57;;;;;;;-141.97;50.14;47540.22;5050029;28;20242;-79
2022/10/27 07:51:58;;;;;;;18.57;8.47;;;;;;;-141.97;50.11;47532.53;5047967;28;20181;-80
2022/10/27 07:54:23;;;;;;;15.23;7.00;;;;;;;-141.97;51.39;47551.75;5046971;28;20213;-80
2022/10/27 07:56:48;;;;;;;15.27;7.47;;;;;;;-141.97;51.63;47536.38;5047877;28;20215;-79
2022/10/27 07:59:14;;;;;;;15.73;7.57;;;;;;;-141.97;52.11;47542.16;5048967;28;20240;-81
2022/10/27 08:01:39;;;;;;;15.33;7.33;;;;;;;-141.97;51.81;47565.22;5049922;28;20256;-78
2022/10/27 08:04:05;;;;;;;17.27;6.80;;;;;;;-141.97;51.45;47509.47;5047176;28;20660;-78
2022/10/27 08:06:30;;;;;;;21.03;8.13;;;;;;;-141.97;51.55;47471.03;5048938;28;20209;-79
2022/10/27 08:08:55;;;;;;;20.27;7.53;;;;;;;-141.97;49.30;47524.84;5049884;28;20185;-79
2022/10/27 08:11:22;;;;;;;14.93;6.43;;;;;;;-141.97;47.12;47522.91;5049410;28;20784;-80
2022/10/27 08:13:48;;;;;;;15.97;7.40;;;;;;;-141.97;46.42;47557.53;5047916;28;20602;-79
2022/10/27 08:16:13;;;;;;;18.10;7.77;;;;;;;-141.97;45.94;47534.44;5054430;28;20235;-79
2022/10/27 08:18:39;;;;;;;13.03;7.17;;;;;;;-141.97;46.21;47557.53;5049463;28;20181;-79
2022/10/27 08:21:04;;;;;;;15.07;6.97;;;;;;;-141.97;47.19;47536.38;5049196;28;20196;-80
2022/10/27 08:23:30;;;;;;;16.47;7.00;;;;;;;-141.97;46.58;47507.53;5049572;28;20246;-79
2022/10/27 08:25:56;;;;;;;12.63;6.07;;;;;;;-141.97;45.75;47538.28;5052085;28;21250;-80
2022/10/27 08:28:23;;;;;;;12.17;6.57;;;;;;;-141.97;46.93;47544.06;5048944;28;20192;-80
2022/10/27 08:30:51;;;;;;;14.17;7.93;;;;;;;-141.97;47.36;47542.16;5050111;28;20191;-80
2022/10/27 08:33:16;;;;;;;12.70;7.20;;;;;;;-141.97;47.43;47519.06;5048336;28;20235;-79
2022/10/27 08:35:42;;;;;;;13.93;8.20;;;;;;;-141.97;47.75;47540.22;5049376;28;20716;-79
2022/10/27 08:38:12;;;;;;;18.17;8.63;;;;;;;-141.97;47.54;47546.00;5049168;28;20673;-79
2022/10/27 08:40:58;;;;;;;11.73;7.43;;;;;;;-141.97;46.99;47505.63;5049269;28;20185;-79
2022/10/27 08:43:35;;;;;;;13.53;6.50;;;;;;;-141.97;46.57;47538.28;5049777;28;20252;-80
2022/10/27 08:46:13;;;;;;;11.67;6.23;;;;;;;-141.97;46.02;47555.59;5049218;28;20709;-79
2022/10/27 08:48:40;;;;;;;8.67;5.77;;;;;;;-141.97;46.05;47549.84;5049988;28;20177;-79
2022/10/27 08:51:14;;;;;;;15.20;7.23;;;;;;;-141.97;45.70;47513.31;5058380;28;20199;-79
2022/10/27 08:53:41;;;;;;;11.73;6.80;;;;;;;-141.97;45.06;47544.06;5069580;28;20175;-81
2022/10/27 08:56:09;;;;;;;10.13;5.80;;;;;;;-141.97;45.06;47526.75;5066870;28;20204;-79
2022/10/27 08:58:41;;;;;;;12.80;6.90;;;;;;;-141.97;44.48;47546.00;5068411;28;20184;-78
2022/10/27 09:01:18;;;;;;;12.53;6.50;;;;;;;-141.97;43.80;47532.53;5067069;28;20193;-79
2022/10/27 09:04:05;;;;;;;16.00;6.73;;;;;;;-141.97;43.11;47488.31;5068119;28;20203;-78
2022/10/27 09:06:36;;;;;;;11.83;5.97;;;;;;;-141.97;43.26;47501.78;5068877;28;20203;-79
2022/10/27 09:09:25;;;;;;;10.67;6.10;;;;;;;-141.97;43.20;47534.44;5069582;28;20184;-80
2022/10/27 09:12:29;;;;;;;8.23;6.07;;;;;;;-141.97;42.80;47507.53;5068976;28;20659;-79
2022/10/27 09:15:09;;;;;;;11.97;6.60;;;;;;;-141.97;42.23;47499.84;4985946;28;20305;-79
2022/10/27 09:17:47;;;;;;;9.03;5.90;;;;;;;-141.97;41.77;47521.00;4986663;28;20202;-80
2022/10/27 09:20:26;;;;;;;14.30;6.43;;;;;;;-141.97;41.29;47476.78;4987164;28;20713;-80
2022/10/27 09:22:54;;;;;;;16.27;7.40;;;;;;;-141.97;40.27;47509.47;4985923;28;20187;-79
2022/10/27 09:25:21;;;;;;;13.80;6.67;;;;;;;-141.97;38.90;47515.22;4985029;28;20203;-79
2022/10/27 09:27:56;;;;;;;10.07;6.27;;;;;;;-141.97;37.99;47476.78;4968089;28;20183;-79
2022/10/27 09:30:21;;;;;;;10.07;6.23;;;;;;;-141.97;37.46;47467.19;4967828;28;20191;-79
2022/10/27 09:32:55;;;;;;;9.23;6.03;;;;;;;-141.97;36.97;47480.63;4958461;28;20297;-79
2022/10/27 09:35:27;;;;;;;14.63;8.17;;;;;;;-141.97;37.08;47476.78;4986523;28;20243;-79
2022/10/27 09:37:57;;;;;;;10.80;7.23;;;;;;;-141.97;37.89;47482.56;4986827;28;20781;-80
2022/10/27 09:40:24;;;;;;;14.27;6.57;;;;;;;-141.97;38.11;47480.63;4986687;28;20223;-80
2022/10/27 09:42:52;;;;;;;12.43;5.80;;;;;;;-141.97;38.80;47521.00;4987317;28;20190;-78
2022/10/27 09:45:19;;;;;;;8.63;5.70;;;;;;;-141.97;38.63;47499.84;4986264;28;20196;-80
2022/10/27 09:47:51;;;;;;;8.13;5.63;;;;;;;-141.97;38.13;47497.94;4986500;28;20187;-80
2022/10/27 09:50:23;;;;;;;9.20;6.07;;;;;;;-141.97;37.69;47501.78;4985697;28;20770;-79
2022/10/27 09:52:49;;;;;;;10.70;5.53;;;;;;;-141.97;37.48;47472.94;5066629;28;20196;-80
2022/10/27 09:55:15;;;;;;;9.93;5.73;;;;;;;-141.97;37.53;47488.31;5067729;28;20196;-80
2022/10/27 09:57:42;;;;;;;10.80;5.90;;;;;;;-141.97;37.27;47482.56;5067785;28;20228;-79
2022/10/27 10:00:23;;;;;;;8.50;5.73;;;;;;;-141.97;36.96;47411.44;5067912;28;20334;-79
2022/10/27 10:03:16;;;;;;;8.10;5.40;;;;;;;-141.97;36.45;47480.63;5050244;28;20188;-79
2022/10/27 10:05:43;;;;;;;9.97;5.40;;;;;;;-141.97;36.07;47422.97;5067691;28;20181;-80
2022/10/27 10:08:23;;;;;;;10.43;6.50;;;;;;;-141.97;36.07;47453.72;5068574;28;21005;-80
2022/10/27 10:10:57;;;;;;;11.67;6.70;;;;;;;-141.97;35.81;47465.25;5069483;28;20214;-80
2022/10/27 10:13:23;;;;;;;9.13;5.40;;;;;;;-141.97;35.90;47430.66;5068583;28;20227;-80
2022/10/27 10:16:04;;;;;;;8.80;5.40;;;;;;;-141.97;35.54;47447.97;5066894;28;20683;-80
2022/10/27 10:18:31;;;;;;;8.13;5.20;;;;;;;-141.97;34.99;47457.56;5068375;28;20208;-80
2022/10/27 10:21:09;;;;;;;8.83;5.00;;;;;;;-141.97;34.92;47422.97;5067145;28;20690;-81
2022/10/27 10:23:40;;;;;;;10.27;6.30;;;;;;;-141.97;34.96;47453.72;5067514;28;20192;-80
2022/10/27 10:26:16;;;;;;;10.17;6.27;;;;;;;-141.97;34.71;47457.56;5059674;28;20340;-81
2022/10/27 10:28:43;;;;;;;10.53;7.33;;;;;;;-141.97;35.89;47434.50;5046451;28;20299;-79
2022/10/27 10:31:14;;;;;;;10.30;5.57;;;;;;;-141.97;35.88;47440.28;5047617;28;20193;-81
2022/10/27 10:33:45;;;;;;;8.50;5.60;;;;;;;-141.97;35.84;47449.88;5047677;28;20225;-82
2022/10/27 10:36:33;;;;;;;7.70;5.30;;;;;;;-141.97;35.07;47459.50;5047118;28;20661;-81
2022/10/27 10:38:59;;;;;;;7.03;4.57;;;;;;;-141.97;34.74;47449.88;5050078;28;20193;-80
2022/10/27 10:41:29;;;;;;;8.13;4.90;;;;;;;-141.97;34.33;47438.34;5055566;28;20189;-79
2022/10/27 10:44:14;;;;;;;14.97;5.20;;;;;;;-141.97;34.34;47426.81;5050406;28;20196;-81
2022/10/27 10:46:49;;;;;;;9.40;5.10;;;;;;;-141.97;34.09;47434.50;5050490;28;20241;-81
2022/10/27 10:49:24;;;;;;;8.87;5.53;;;;;;;-141.97;33.97;47436.44;5051343;28;20184;-80
2022/10/27 10:51:52;;;;;;;10.17;5.90;;;;;;;-141.97;33.73;47472.94;5051065;28;20185;-80
2022/10/27 10:54:26;;;;;;;7.97;5.20;;;;;;;-141.97;33.33;47432.59;5051272;28;20308;-79
2022/10/27 10:56:53;;;;;;;8.67;4.90;;;;;;;-141.97;33.99;47513.31;5050657;28;20264;-80
2022/10/27 10:59:23;;;;;;;23.57;5.97;;;;;;;-141.97;34.23;47436.44;5050987;28;20193;-81
2022/10/27 11:02:30;;;;;;;7.10;4.53;;;;;;;-141.97;34.13;47634.41;5051136;28;20547;-80
2022/10/27 11:05:08;;;;;;;8.77;4.87;;;;;;;-141.97;34.09;47442.19;4971367;28;20200;-80
2022/10/27 11:07:34;;;;;;;9.57;5.10;;;;;;;-141.97;34.03;47388.38;5007818;28;20186;-80
2022/10/27 11:10:03;;;;;;;6.60;4.40;;;;;;;-141.97;34.08;47399.91;5008992;28;20194;-82
2022/10/27 11:12:49;;;;;;;6.83;4.40;;;;;;;-141.97;34.56;47442.19;5008829;28;21004;-82
2022/10/27 11:15:27;;;;;;;9.93;4.77;;;;;;;-141.97;34.30;47434.50;4995325;28;20259;-80
2022/10/27 11:17:57;;;;;;;7.93;4.73;;;;;;;-141.97;34.36;47430.66;4987961;28;20195;-80